Time;durP1;ratioP1;P1;durP2;ratioP2;P2;SDS_P1;SDS_P2;PMS_P1;PMS_P2;Temp;Humidity;BMP_temperature;BMP_pressure;BME280_temperature;BME280_humidity;BME280_pressure;Samples;Min_cycle;Max_cycle;Signal;HPM_P1;HPM_P2
2022/06/02 00:01:40;;;;;;;22.90;2.10;;;;;;;22.57;56.21;99520.00;7310861;19;129241;-39
2022/06/02 00:04:18;;;;;;;27.02;2.35;;;;;;;22.65;54.68;99543.69;7312045;19;129525;-40
2022/06/02 00:07:05;;;;;;;32.58;2.67;;;;;;;22.63;55.82;99535.97;7311762;19;130384;-42
2022/06/02 00:09:30;;;;;;;29.60;2.47;;;;;;;22.54;54.81;99518.53;7311885;19;129044;-39
2022/06/02 00:12:14;;;;;;;22.23;2.17;;;;;;;22.65;56.17;99554.16;7310476;19;155786;-40
2022/06/02 00:14:48;;;;;;;31.88;2.90;;;;;;;;;;7310512;19;130342;-39
2022/06/02 00:17:32;;;;;;;29.27;2.55;;;;;;;22.65;56.07;99580.38;7310332;19;130718;-39
2022/06/02 00:20:12;;;;;;;25.92;2.08;;;;;;;22.17;51.09;99588.41;7311427;19;129129;-39
2022/06/02 00:22:53;;;;;;;36.25;2.97;;;;;;;22.23;54.06;99584.41;7311709;19;129382;-40
2022/06/02 00:25:35;;;;;;;34.60;2.78;;;;;;;22.40;56.08;99566.13;7311560;19;129124;-40
2022/06/02 00:28:11;;;;;;;33.25;2.72;;;;;;;22.49;56.03;99574.91;7311140;19;130421;-42
2022/06/02 00:30:59;;;;;;;28.98;2.55;;;;;;;22.58;56.17;99566.19;7310008;19;129073;-40
2022/06/02 00:33:36;;;;;;;51.00;4.28;;;;;;;22.61;56.56;99560.69;7311092;19;129127;-41
2022/06/02 00:36:10;;;;;;;21.20;2.13;;;;;;;22.64;56.47;99552.53;7308336;19;129607;-38
2022/06/02 00:38:38;;;;;;;35.50;3.00;;;;;;;22.63;55.78;99546.44;7310620;19;130517;-39
2022/06/02 00:41:33;;;;;;;31.40;2.58;;;;;;;22.58;56.50;99527.72;7308774;19;130629;-39
2022/06/02 00:44:14;;;;;;;25.25;2.13;;;;;;;22.67;56.50;99547.81;7311606;19;129391;-39
2022/06/02 00:46:53;;;;;;;48.95;3.60;;;;;;;22.69;56.38;99540.59;7310403;19;129708;-40
2022/06/02 00:49:40;;;;;;;31.63;2.55;;;;;;;22.70;56.61;99537.03;7311824;19;130452;-39
2022/06/02 00:52:11;;;;;;;35.77;2.80;;;;;;;22.72;56.15;99555.22;7311653;19;128973;-39
2022/06/02 00:58:12;;;;;;;19.55;1.58;;;;;;;22.71;55.91;99569.31;7310862;19;129063;-40
2022/06/02 01:01:00;;;;;;;30.42;2.30;;;;;;;22.69;56.13;99566.81;7308802;19;129726;-39
2022/06/02 01:03:31;;;;;;;;;;;;;;;22.72;56.38;99602.41;7311893;19;129255;-41
2022/06/02 01:06:32;;;;;;;25.05;2.25;;;;;;;22.67;56.52;99602.84;7309736;19;129673;-40
2022/06/02 01:09:20;;;;;;;8.05;1.02;;;;;;;22.66;55.73;99600.38;7310408;19;130318;-42
2022/06/02 01:12:08;;;;;;;27.13;2.42;;;;;;;22.31;51.83;99577.50;7308762;19;157566;-40
2022/06/02 01:15:11;;;;;;;26.50;2.05;;;;;;;22.13;50.41;99560.84;7309628;19;131257;-39
2022/06/02 01:18:16;;;;;;;36.15;2.88;;;;;;;22.35;54.67;99551.81;7308777;19;129270;-40
2022/06/02 01:20:56;;;;;;;26.90;2.05;;;;;;;22.44;54.84;99571.91;7309471;19;129202;-38
2022/06/02 01:24:02;;;;;;;49.30;4.13;;;;;;;22.53;55.09;99586.75;7309129;19;129359;-41
2022/06/02 01:26:57;;;;;;;26.05;2.35;;;;;;;22.49;54.84;99577.53;7311474;19;129190;-38
2022/06/02 01:29:42;;;;;;;34.22;2.63;;;;;;;22.60;54.94;99600.94;7308229;19;130708;-42
2022/06/02 01:32:10;;;;;;;32.25;2.55;;;;;;;22.55;53.69;99605.78;7312623;19;130739;-40
2022/06/02 01:35:16;;;;;;;25.10;2.15;;;;;;;22.51;55.38;99583.47;7314817;19;130346;-40
2022/06/02 01:37:52;;;;;;;17.20;1.58;;;;;;;22.57;54.88;99599.44;7317480;19;129029;-39
2022/06/02 01:40:27;;;;;;;35.70;2.70;;;;;;;22.54;53.06;99589.28;7315313;19;129587;-41
2022/06/02 01:43:18;;;;;;;25.25;1.98;;;;;;;22.62;55.23;99604.25;7316964;19;129182;-40
2022/06/02 01:46:20;;;;;;;29.23;2.63;;;;;;;22.53;55.96;99592.00;7316769;19;129187;-40
2022/06/02 01:49:06;;;;;;;17.65;1.38;;;;;;;22.61;55.30;99592.13;7317123;19;129507;-40
2022/06/02 01:51:45;;;;;;;30.48;2.47;;;;;;;22.60;53.83;99585.22;7317997;19;129227;-41
2022/06/02 01:54:35;;;;;;;37.08;2.97;;;;;;;22.62;55.50;99591.97;7315726;19;130498;-39
2022/06/02 01:57:12;;;;;;;31.60;2.53;;;;;;;22.65;55.13;99598.72;7316620;19;130265;-40
2022/06/02 02:00:06;;;;;;;29.50;2.50;;;;;;;22.55;56.16;99590.06;7315862;19;129154;-41
2022/06/02 02:02:37;;;;;;;13.82;1.35;;;;;;;22.61;55.02;99605.22;7317680;19;129083;-40
2022/06/02 02:05:20;;;;;;;39.90;3.20;;;;;;;22.40;52.02;99608.03;7315034;19;129953;-39
2022/06/02 02:08:24;;;;;;;31.20;2.60;;;;;;;22.15;51.29;99607.88;7315422;19;129245;-41
2022/06/02 02:11:00;;;;;;;22.88;1.98;;;;;;;22.39;52.50;99616.03;7313172;19;129220;-41
2022/06/02 02:13:34;;;;;;;35.28;2.85;;;;;;;22.41;54.94;99609.69;7316480;19;129928;-39
2022/06/02 02:16:23;;;;;;;37.78;2.92;;;;;;;22.53;55.33;99610.34;7312613;19;129113;-40
2022/06/02 02:19:35;;;;;;;22.08;1.83;;;;;;;22.56;55.45;99607.47;7316168;19;129396;-41
2022/06/02 02:22:11;;;;;;;35.92;2.88;;;;;;;22.60;53.65;99599.16;7315344;19;129666;-41
2022/06/02 02:24:58;;;;;;;28.23;2.35;;;;;;;22.59;54.61;99596.69;7315706;19;129290;-39
2022/06/02 02:28:02;;;;;;;38.17;2.88;;;;;;;22.58;56.02;99593.22;7314493;19;130240;-42
2022/06/02 02:30:49;;;;;;;25.88;2.17;;;;;;;22.58;55.58;99601.09;7313790;19;130374;-40
2022/06/02 02:33:49;;;;;;;35.28;2.80;;;;;;;22.62;55.27;99606.88;7315665;19;129424;-40
2022/06/02 02:36:31;;;;;;;22.02;1.77;;;;;;;22.62;54.79;99597.22;7312755;19;130217;-42
2022/06/02 02:39:05;;;;;;;33.42;2.75;;;;;;;22.60;54.54;99596.53;7315543;19;132391;-40
2022/06/02 02:41:41;;;;;;;32.67;2.63;;;;;;;22.61;54.79;99586.88;7314437;19;129347;-40
2022/06/02 02:44:27;;;;;;;15.73;1.40;;;;;;;22.64;55.81;99604.94;7314196;19;129120;-39
2022/06/02 02:47:07;;;;;;;29.25;2.47;;;;;;;22.62;55.01;99601.63;7313043;19;153863;-41
2022/06/02 02:49:40;;;;;;;41.58;3.45;;;;;;;22.62;54.25;99601.63;7314517;19;129474;-39
2022/06/02 02:52:38;;;;;;;36.08;2.60;;;;;;;22.64;55.77;99604.94;7314467;19;129700;-41
2022/06/02 02:55:09;;;;;;;20.80;1.83;;;;;;;22.61;54.86;99607.84;7312674;19;129895;-41
2022/06/02 02:57:56;;;;;;;35.00;2.72;;;;;;;22.61;55.10;99607.84;7314348;19;129648;-41
2022/06/02 03:00:27;;;;;;;25.65;2.13;;;;;;;22.16;50.81;99614.75;7314763;19;130854;-41
2022/06/02 03:03:16;;;;;;;23.55;2.10;;;;;;;22.22;53.90;99614.16;7314672;19;129772;-39
2022/06/02 03:06:03;;;;;;;44.25;3.53;;;;;;;22.40;55.38;99612.44;7314534;19;130497;-39
2022/06/02 03:09:08;;;;;;;47.67;3.53;;;;;;;22.49;55.32;99611.59;7312022;19;128864;-41
2022/06/02 03:11:53;;;;;;;33.30;2.50;;;;;;;22.52;54.27;99612.13;7314437;19;130285;-39
2022/06/02 03:14:46;;;;;;;34.72;2.67;;;;;;;22.58;54.37;99610.75;7312091;19;130619;-39
2022/06/02 03:17:28;;;;;;;21.63;1.73;;;;;;;22.59;54.66;99613.22;7314327;19;130033;-40
2022/06/02 03:20:08;;;;;;;19.65;1.58;;;;;;;22.61;54.61;99626.19;7312699;19;129735;-39
2022/06/02 03:23:11;;;;;;;21.95;2.15;;;;;;;22.60;55.31;99621.91;7314966;19;130374;-39
2022/06/02 03:25:42;;;;;;;36.88;2.88;;;;;;;22.59;54.18;99628.13;7312727;19;130394;-43
2022/06/02 03:28:37;;;;;;;34.33;2.75;;;;;;;22.63;54.21;99639.94;7313407;19;129397;-39
2022/06/02 03:31:28;;;;;;;13.07;1.33;;;;;;;22.63;55.38;99643.41;7310937;19;129228;-39
2022/06/02 03:34:25;;;;;;;24.65;2.00;;;;;;;22.58;54.96;99644.81;7312710;19;129529;-40
2022/06/02 03:37:03;;;;;;;24.33;1.90;;;;;;;22.60;54.37;99654.19;7312469;19;129235;-42
2022/06/02 03:39:57;;;;;;;49.83;3.92;;;;;;;22.63;55.80;99663.53;7312916;19;130084;-39
2022/06/02 03:42:47;;;;;;;34.13;2.58;;;;;;;22.63;54.70;99658.28;7313976;19;129338;-40
2022/06/02 03:45:38;;;;;;;26.13;2.08;;;;;;;22.57;55.38;99651.03;7312684;19;131046;-39
2022/06/02 03:48:31;;;;;;;39.05;3.00;;;;;;;22.62;55.41;99654.03;7313673;19;130543;-39
2022/06/02 03:50:59;;;;;;;11.60;1.05;;;;;;;22.60;53.62;99662.03;7311748;19;128988;-41
2022/06/02 03:53:45;;;;;;;64.97;4.88;;;;;;;22.15;51.14;99668.09;7311018;19;130202;-39
2022/06/02 03:56:25;;;;;;;34.38;2.83;;;;;;;22.28;52.17;99671.25;7308908;19;130737;-38
2022/06/02 03:59:27;;;;;;;21.27;1.88;;;;;;;22.33;54.95;99659.34;7312387;19;129306;-40
2022/06/02 04:02:02;;;;;;;33.28;2.45;;;;;;;22.53;54.42;99675.84;7312375;19;130482;-39
2022/06/02 04:05:02;;;;;;;34.97;2.85;;;;;;;22.56;54.93;99675.59;7312468;19;129497;-41
2022/06/02 04:08:05;;;;;;;34.90;2.72;;;;;;;22.57;55.13;99672.00;7310514;19;130142;-39
2022/06/02 04:10:49;;;;;;;46.47;3.70;;;;;;;22.59;53.59;99677.91;7307903;19;129537;-41
2022/06/02 04:13:57;;;;;;;38.00;2.88;;;;;;;22.66;54.85;99686.84;7309479;19;129649;-44
2022/06/02 04:16:49;;;;;;;31.83;2.43;;;;;;;22.65;55.64;99680.78;7309541;19;129891;-40
2022/06/02 04:22:35;;;;;;;26.42;2.00;;;;;;;22.67;53.81;99688.50;7312672;19;129936;-40
2022/06/02 04:25:29;;;;;;;43.30;3.55;;;;;;;22.55;54.92;99681.78;7307105;19;129264;-41
2022/06/02 04:28:06;;;;;;;52.92;4.35;;;;;;;;;;7306728;19;129042;-41
2022/06/02 04:31:09;;;;;;;74.55;5.78;;;;;;;22.67;55.41;99698.97;7306860;19;132035;-40
2022/06/02 04:33:40;;;;;;;43.38;3.40;;;;;;;22.62;54.34;99696.81;7302489;19;130124;-43
2022/06/02 04:36:14;;;;;;;40.30;3.47;;;;;;;22.65;55.08;99699.13;7306221;19;129185;-42
2022/06/02 04:39:18;;;;;;;56.95;4.53;;;;;;;22.68;55.65;99705.88;7308997;19;130011;-40
2022/06/02 04:41:58;;;;;;;24.25;2.05;;;;;;;22.72;55.09;99712.47;7310420;19;130177;-41
2022/06/02 04:44:45;;;;;;;56.67;4.05;;;;;;;22.45;51.42;99715.00;7308782;19;130845;-42
2022/06/02 04:47:29;;;;;;;50.85;3.80;;;;;;;22.26;50.84;99725.53;7307380;19;128932;-43
2022/06/02 04:50:19;;;;;;;62.05;4.22;;;;;;;22.47;54.10;99724.41;7309037;19;129162;-43
2022/06/02 04:53:09;;;;;;;47.60;4.25;;;;;;;22.49;54.53;99716.38;7304532;19;130679;-41
2022/06/02 04:56:12;;;;;;;36.08;2.83;;;;;;;22.60;54.41;99724.09;7305367;19;130339;-41
2022/06/02 04:58:55;;;;;;;36.03;3.28;;;;;;;22.64;54.75;99735.97;7306136;19;130254;-42
2022/06/02 05:01:20;;;;;;;62.22;5.40;;;;;;;;;;7303811;19;153722;-41
2022/06/02 05:04:13;;;;;;;46.58;4.07;;;;;;;22.69;54.97;99746.84;7305836;19;129875;-39
2022/06/02 05:06:51;;;;;;;92.53;6.18;;;;;;;22.67;54.92;99744.38;7304397;19;130971;-41
2022/06/02 05:09:37;;;;;;;58.75;4.60;;;;;;;22.60;54.88;99726.72;7299002;19;130547;-42
2022/06/02 05:12:29;;;;;;;49.83;4.25;;;;;;;22.69;55.35;99749.47;7302025;19;130386;-41
2022/06/02 05:15:34;;;;;;;48.72;3.95;;;;;;;22.68;55.51;99753.03;7300041;19;129999;-38
2022/06/02 05:18:30;;;;;;;72.93;5.75;;;;;;;22.74;54.95;99752.47;7300354;19;130409;-41
2022/06/02 05:21:12;;;;;;;53.20;4.45;;;;;;;22.68;55.75;99758.28;7299282;19;128951;-42
2022/06/02 05:23:54;;;;;;;53.55;4.80;;;;;;;22.70;55.49;99753.72;7299774;19;130134;-40
2022/06/02 05:26:35;;;;;;;18.33;1.73;;;;;;;22.67;55.17;99762.72;7304709;19;130668;-42
2022/06/02 05:29:18;;;;;;;21.58;2.10;;;;;;;22.70;53.66;99761.59;7305887;19;158546;-42
2022/06/02 05:32:21;;;;;;;45.97;3.83;;;;;;;22.70;56.18;99756.34;7306177;19;129183;-42
2022/06/02 05:35:09;;;;;;;47.05;3.95;;;;;;;22.47;52.89;99760.25;7299937;19;130684;-39
2022/06/02 05:37:36;;;;;;;;;;;;;;;22.21;51.28;99767.03;7300103;19;130162;-39
2022/06/02 05:40:26;;;;;;;46.00;4.15;;;;;;;22.40;53.36;99769.63;7299665;19;132098;-40
2022/06/02 05:43:29;;;;;;;32.03;2.67;;;;;;;22.51;54.91;99764.25;7306262;19;130296;-41
2022/06/02 05:46:12;;;;;;;33.72;2.78;;;;;;;22.58;54.74;99768.78;7309385;19;128989;-42
2022/06/02 05:48:50;;;;;;;24.13;2.00;;;;;;;22.64;54.05;99767.41;7308520;19;129176;-41
2022/06/02 05:51:40;;;;;;;28.77;2.45;;;;;;;22.63;55.16;99760.50;7306587;19;129976;-42
2022/06/02 05:54:30;;;;;;;26.80;2.83;;;;;;;22.58;53.69;99752.22;7309192;19;129298;-41
2022/06/02 05:57:19;;;;;;;29.83;2.58;;;;;;;22.67;55.08;99767.13;7310211;19;129201;-42
2022/06/02 06:00:11;;;;;;;137.27;10.88;;;;;;;22.67;55.37;99773.19;7296956;19;130279;-40
2022/06/02 06:03:08;;;;;;;196.57;16.40;;;;;;;22.66;54.67;99776.78;7273329;19;132116;-38
2022/06/02 06:05:57;;;;;;;53.07;4.73;;;;;;;22.69;55.13;99780.91;7294995;19;130246;-42
2022/06/02 06:08:45;;;;;;;49.17;4.38;;;;;;;22.67;55.22;99777.59;7300237;19;129044;-41
2022/06/02 06:11:28;;;;;;;23.90;2.00;;;;;;;22.69;55.59;99788.78;7300995;19;130791;-41
2022/06/02 06:14:17;;;;;;;22.83;2.25;;;;;;;22.67;55.16;99788.09;7310111;19;130319;-42
2022/06/02 06:16:51;;;;;;;53.08;4.13;;;;;;;22.60;54.17;99777.34;7299831;19;129959;-39
2022/06/02 06:19:37;;;;;;;42.88;3.70;;;;;;;22.66;55.09;99787.25;7303332;19;131370;-40
2022/06/02 06:22:05;;;;;;;54.25;4.47;;;;;;;22.68;54.16;99794.97;7306595;19;131050;-40
2022/06/02 06:24:54;;;;;;;48.92;4.20;;;;;;;22.71;54.62;99797.34;7304006;19;158345;-40
2022/06/02 06:27:47;;;;;;;67.93;5.35;;;;;;;22.23;51.65;99804.41;7306558;19;130255;-42
2022/06/02 06:30:33;;;;;;;56.20;4.65;;;;;;;22.32;53.70;99795.69;7302816;19;129582;-39
2022/06/02 06:33:33;;;;;;;58.10;4.80;;;;;;;22.49;54.88;99797.63;7305406;19;130200;-42
2022/06/02 06:36:30;;;;;;;46.97;4.00;;;;;;;22.60;54.83;99807.97;7302680;19;130819;-40
2022/06/02 06:39:26;;;;;;;51.75;4.65;;;;;;;22.60;55.14;99810.56;7309497;19;130207;-42
2022/06/02 06:42:12;;;;;;;49.13;4.57;;;;;;;22.63;55.53;99812.91;7308471;19;129063;-41
2022/06/02 06:44:42;;;;;;;47.33;4.07;;;;;;;22.65;54.62;99811.81;7305115;19;129617;-41
2022/06/02 06:47:30;;;;;;;28.40;2.45;;;;;;;22.62;54.65;99814.72;7305438;19;158365;-41
2022/06/02 06:50:05;;;;;;;36.95;2.85;;;;;;;22.68;54.91;99821.19;7314037;19;129004;-41
2022/06/02 06:52:43;;;;;;;34.00;3.00;;;;;;;22.68;54.21;99826.41;7309060;19;129555;-41
2022/06/02 06:55:39;;;;;;;31.05;2.78;;;;;;;22.65;55.71;99818.84;7315346;19;129648;-41
2022/06/02 06:58:20;;;;;;;50.53;4.28;;;;;;;22.70;54.51;99824.50;7309071;19;130430;-39
2022/06/02 07:01:06;;;;;;;15.30;1.58;;;;;;;22.68;53.95;99831.66;7312481;19;129118;-43
2022/06/02 07:03:57;;;;;;;32.03;2.83;;;;;;;22.68;55.72;99829.03;7310828;19;130413;-42
2022/06/02 07:06:41;;;;;;;15.63;1.65;;;;;;;22.63;55.16;99826.00;7309294;19;129715;-41
2022/06/02 07:09:16;;;;;;;49.00;4.22;;;;;;;22.66;55.45;99833.63;7305643;19;130723;-41
2022/06/02 07:12:51;;;;;;;53.55;4.78;;;;;;;22.69;55.08;99830.72;7305069;19;129884;-41
2022/06/02 07:15:02;;;;;;;25.15;2.15;;;;;;;22.57;54.54;99826.59;7313231;19;132459;-39
2022/06/02 07:17:50;;;;;;;28.00;2.25;;;;;;;22.36;51.46;99839.00;7312872;19;130233;-42
2022/06/02 07:20:46;;;;;;;27.90;2.55;;;;;;;22.22;50.95;99839.41;7311532;19;130953;-42
2022/06/02 07:23:54;;;;;;;23.23;2.13;;;;;;;22.44;54.70;99839.13;7313678;19;129059;-41
2022/06/02 07:26:34;;;;;;;55.00;4.57;;;;;;;22.52;54.17;99841.88;7305478;19;129120;-39
2022/06/02 07:29:25;;;;;;;41.05;3.90;;;;;;;22.49;55.29;99840.38;7304605;19;131841;-42
2022/06/02 07:32:18;;;;;;;23.08;2.03;;;;;;;22.60;55.75;99847.25;7307193;19;132291;-42
2022/06/02 07:35:22;;;;;;;24.83;2.20;;;;;;;22.64;54.73;99851.28;7314226;19;129036;-42
2022/06/02 07:38:06;;;;;;;31.08;2.55;;;;;;;22.63;55.98;99857.47;7311015;19;129378;-41
2022/06/02 07:40:55;;;;;;;35.53;2.80;;;;;;;22.62;53.80;99853.19;7312073;19;129527;-41
2022/06/02 07:43:47;;;;;;;9.10;1.17;;;;;;;22.68;54.93;99852.63;7309551;19;130476;-42
2022/06/02 07:46:46;;;;;;;21.73;1.92;;;;;;;22.67;55.85;99851.00;7308825;19;154679;-42
2022/06/02 07:49:35;;;;;;;23.50;2.00;;;;;;;22.68;55.05;99847.38;7313917;19;129049;-40
2022/06/02 07:52:13;;;;;;;48.00;3.95;;;;;;;22.58;54.79;99846.56;7309808;19;129743;-42
2022/06/02 07:54:47;;;;;;;21.48;1.98;;;;;;;22.57;54.67;99844.94;7314068;19;131339;-42
2022/06/02 07:57:27;;;;;;;61.55;5.20;;;;;;;22.62;54.87;99863.69;7298016;19;129228;-42
2022/06/02 08:00:11;;;;;;;35.40;3.08;;;;;;;22.65;55.56;99855.53;7303878;19;130466;-40
2022/06/02 08:03:02;;;;;;;44.65;3.85;;;;;;;22.67;55.83;99869.34;7307620;19;129034;-41
2022/06/02 08:05:42;;;;;;;38.33;3.10;;;;;;;22.62;55.56;99866.31;7311396;19;130391;-42
2022/06/02 08:08:19;;;;;;;103.22;8.25;;;;;;;22.63;55.55;99873.19;7309981;19;128839;-39
2022/06/02 08:10:47;;;;;;;;;;;;;;;22.31;51.75;99872.63;7309486;19;154049;-42
2022/06/02 08:13:18;;;;;;;19.27;2.00;;;;;;;22.16;50.78;99874.84;7310519;19;129382;-41
2022/06/02 08:16:02;;;;;;;42.80;3.75;;;;;;;22.39;52.77;99875.38;7306723;19;131538;-43
2022/06/02 08:18:47;;;;;;;30.98;2.72;;;;;;;22.46;54.45;99873.88;7311068;19;129115;-42
2022/06/02 08:21:21;;;;;;;122.35;9.82;;;;;;;22.54;54.48;99881.91;7303211;19;128820;-41
2022/06/02 08:24:13;;;;;;;27.63;2.38;;;;;;;22.59;54.94;99877.06;7308649;19;129538;-41
2022/06/02 08:27:04;;;;;;;24.13;2.13;;;;;;;22.59;55.67;99885.75;7311277;19;130744;-41
2022/06/02 08:29:36;;;;;;;14.93;1.48;;;;;;;22.62;54.25;99887.28;7311193;19;129310;-41
2022/06/02 08:32:23;;;;;;;19.08;1.80;;;;;;;22.65;54.73;99889.59;7311167;19;129140;-42
2022/06/02 08:34:57;;;;;;;31.77;2.58;;;;;;;22.61;54.36;99889.06;7306141;19;132530;-41
2022/06/02 08:37:37;;;;;;;27.38;2.42;;;;;;;22.63;53.05;99896.78;7311430;19;130459;-41
2022/06/02 08:40:14;;;;;;;76.07;6.68;;;;;;;;;;7307898;19;129789;-41
2022/06/02 08:43:13;;;;;;;24.70;2.15;;;;;;;22.66;54.80;99891.28;7309103;19;128765;-42
2022/06/02 08:45:49;;;;;;;41.00;3.45;;;;;;;;;;7307767;19;129227;-42
2022/06/02 08:48:39;;;;;;;32.03;2.67;;;;;;;22.65;55.54;99902.72;7306308;19;130357;-40
2022/06/02 08:51:42;;;;;;;49.20;4.03;;;;;;;22.68;55.37;99907.66;7306940;19;129143;-42
2022/06/02 08:54:10;;;;;;;86.63;7.15;;;;;;;22.65;53.81;99902.72;7308687;19;129032;-42
2022/06/02 08:57:15;;;;;;;87.85;7.53;;;;;;;22.65;55.08;99905.34;7307473;19;130162;-42
2022/06/02 08:59:50;;;;;;;21.52;1.92;;;;;;;;;;7305198;19;130380;-43
2022/06/02 09:02:26;;;;;;;25.30;2.13;;;;;;;22.62;53.98;99905.63;7306819;19;129740;-42
2022/06/02 09:05:28;;;;;;;7.72;0.82;;;;;;;22.21;50.91;99911.06;7311537;19;128969;-42
2022/06/02 09:08:17;;;;;;;20.60;1.65;;;;;;;22.22;53.16;99907.47;7305849;19;131509;-40
2022/06/02 09:11:00;;;;;;;18.27;2.00;;;;;;;22.48;54.23;99924.31;7309633;19;129454;-46
2022/06/02 09:14:01;;;;;;;35.58;3.10;;;;;;;22.52;55.10;99923.09;7309337;19;129233;-42
2022/06/02 09:16:52;;;;;;;50.05;3.92;;;;;;;22.55;54.20;99925.47;7303131;19;129162;-40
2022/06/02 09:20:07;;;;;;;103.20;8.75;;;;;;;22.60;55.24;99928.50;7305436;19;130983;-42
2022/06/02 09:22:43;;;;;;;49.58;4.40;;;;;;;22.58;55.17;99925.19;7307007;19;130705;-41
2022/06/02 09:25:28;;;;;;;33.55;2.97;;;;;;;22.60;55.63;99933.75;7310909;19;128903;-42
2022/06/02 09:28:15;;;;;;;15.73;1.38;;;;;;;22.62;53.85;99934.44;7310228;19;129158;-42
2022/06/02 09:31:08;;;;;;;50.67;4.05;;;;;;;22.62;55.48;99937.06;7304202;19;130176;-42
2022/06/02 09:34:08;;;;;;;64.20;5.03;;;;;;;22.60;55.31;99944.22;7307461;19;131138;-42
2022/06/02 09:36:42;;;;;;;26.08;2.10;;;;;;;22.61;53.74;99951.94;7305820;19;129189;-41
2022/06/02 09:39:33;;;;;;;24.10;2.03;;;;;;;22.60;55.58;99945.06;7310725;19;130036;-40
2022/06/02 09:42:20;;;;;;;15.70;1.60;;;;;;;22.61;55.58;99946.72;7304915;19;158560;-41
2022/06/02 09:45:17;;;;;;;20.57;1.60;;;;;;;22.62;55.77;99937.91;7308027;19;131102;-41
2022/06/02 09:47:57;;;;;;;19.52;1.60;;;;;;;22.62;54.30;99937.06;7308221;19;128891;-42
2022/06/02 09:50:41;;;;;;;27.08;2.53;;;;;;;;;;7308897;19;128825;-41
2022/06/02 09:53:25;;;;;;;103.50;8.38;;;;;;;22.60;55.43;99931.13;7307512;19;129935;-42
2022/06/02 09:56:08;;;;;;;44.88;3.58;;;;;;;22.35;51.93;99929.00;7317109;19;130334;-42
2022/06/02 09:58:50;;;;;;;41.50;3.17;;;;;;;22.18;51.34;99938.34;7316683;19;129464;-40
2022/06/02 10:01:30;;;;;;;28.17;2.42;;;;;;;22.38;53.92;99936.63;7314402;19;129095;-42
2022/06/02 10:03:58;;;;;;;36.13;2.72;;;;;;;22.45;53.77;99937.69;7314151;19;130397;-41
2022/06/02 10:06:42;;;;;;;28.50;2.20;;;;;;;22.50;53.35;99938.97;7314666;19;130408;-41
2022/06/02 10:09:33;;;;;;;26.02;2.22;;;;;;;22.58;53.85;99930.44;7315759;19;129544;-42
2022/06/02 10:12:54;;;;;;;34.30;2.80;;;;;;;22.57;54.74;99928.78;7311487;19;129370;-41
2022/06/02 10:15:19;;;;;;;29.63;2.35;;;;;;;22.60;53.21;99931.13;7311414;19;130750;-43
2022/06/02 10:18:14;;;;;;;20.10;1.83;;;;;;;22.61;55.41;99930.19;7309369;19;159690;-41
2022/06/02 10:20:44;;;;;;;43.83;3.33;;;;;;;22.61;54.23;99932.78;7312439;19;129387;-41
2022/06/02 10:23:47;;;;;;;29.17;2.33;;;;;;;22.62;55.30;99931.81;7312088;19;154327;-43
2022/06/02 10:26:36;;;;;;;13.73;1.15;;;;;;;22.60;55.48;99928.50;7316323;19;130081;-42
2022/06/02 10:29:21;;;;;;;25.02;1.92;;;;;;;22.62;54.96;99926.59;7314581;19;129854;-43
2022/06/02 10:32:15;;;;;;;53.92;4.45;;;;;;;22.62;55.57;99929.19;7315759;19;129788;-43
2022/06/02 10:34:59;;;;;;;26.45;2.20;;;;;;;22.62;56.22;99916.94;7315594;19;129069;-42
2022/06/02 10:37:39;;;;;;;29.77;2.47;;;;;;;22.61;55.27;99914.44;7310698;19;157043;-42
2022/06/02 10:40:35;;;;;;;30.30;2.40;;;;;;;22.60;55.65;99923.25;7312052;19;158562;-43
2022/06/02 10:43:30;;;;;;;15.80;1.50;;;;;;;22.51;55.04;99916.22;7313634;19;128943;-42
2022/06/02 10:46:14;;;;;;;51.13;4.20;;;;;;;;;;7310006;19;130188;-38
2022/06/02 10:49:00;;;;;;;52.63;4.20;;;;;;;22.19;51.63;99941.81;7312065;19;130274;-41
2022/06/02 10:51:53;;;;;;;37.85;2.88;;;;;;;22.17;51.15;99941.09;7312311;19;130380;-41
2022/06/02 10:54:56;;;;;;;15.35;1.45;;;;;;;22.45;54.46;99940.31;7311569;19;130615;-38
2022/06/02 10:58:00;;;;;;;14.32;1.42;;;;;;;22.53;55.07;99948.34;7310604;19;129079;-40
2022/06/02 11:00:53;;;;;;;26.98;2.08;;;;;;;22.57;55.13;99944.50;7314338;19;129410;-43
2022/06/02 11:03:58;;;;;;;25.17;2.03;;;;;;;22.57;54.61;99940.09;7314560;19;131221;-42
2022/06/02 11:06:56;;;;;;;25.17;2.05;;;;;;;22.62;54.10;99942.31;7312094;19;129239;-42
2022/06/02 11:09:51;;;;;;;41.20;2.97;;;;;;;22.59;55.07;99939.97;7313584;19;129721;-40
2022/06/02 11:12:38;;;;;;;60.47;5.00;;;;;;;22.60;55.15;99938.97;7311569;19;130812;-41
2022/06/02 11:15:24;;;;;;;39.78;2.97;;;;;;;22.60;55.02;99936.38;7314966;19;129230;-41
2022/06/02 11:18:18;;;;;;;19.30;1.70;;;;;;;22.62;55.48;99931.81;7314374;19;129331;-42
2022/06/02 11:21:03;;;;;;;42.58;3.25;;;;;;;22.60;54.78;99929.34;7310632;19;131113;-42
2022/06/02 11:24:00;;;;;;;29.65;2.38;;;;;;;22.59;54.81;99937.34;7312819;19;130329;-42
2022/06/02 11:26:46;;;;;;;20.42;1.73;;;;;;;22.61;54.98;99941.47;7309562;19;129810;-41
2022/06/02 11:29:25;;;;;;;20.42;1.65;;;;;;;22.59;54.99;99945.22;7312652;19;130256;-42
2022/06/02 11:32:24;;;;;;;7.43;0.85;;;;;;;22.61;55.04;99945.91;7311830;19;154656;-40
2022/06/02 11:35:30;;;;;;;20.30;1.50;;;;;;;22.59;55.99;99943.38;7313994;19;129317;-39
2022/06/02 11:38:39;;;;;;;24.20;1.90;;;;;;;22.63;55.75;99936.09;7313521;19;130107;-39
2022/06/02 11:41:18;;;;;;;26.23;2.25;;;;;;;22.41;52.85;99933.72;7310901;19;129200;-40
2022/06/02 11:44:08;;;;;;;12.48;1.17;;;;;;;22.18;51.06;99934.94;7313032;19;128784;-41
2022/06/02 11:47:02;;;;;;;28.55;2.22;;;;;;;22.28;53.56;99925.28;7312377;19;129615;-42
2022/06/02 11:50:09;;;;;;;28.42;2.20;;;;;;;22.44;54.71;99928.19;7311552;19;130461;-39
2022/06/02 11:52:49;;;;;;;31.23;2.47;;;;;;;22.51;54.36;99929.31;7312371;19;129327;-40
2022/06/02 11:55:41;;;;;;;45.85;3.67;;;;;;;22.55;54.36;99931.53;7310357;19;130979;-40
2022/06/02 11:58:36;;;;;;;22.02;1.90;;;;;;;22.58;54.11;99940.91;7313662;19;130286;-39
2022/06/02 12:01:17;;;;;;;16.30;1.60;;;;;;;22.49;53.66;99920.75;7311167;19;130529;-40
2022/06/02 12:04:31;;;;;;;15.93;1.40;;;;;;;22.57;55.53;99929.63;7309936;19;129504;-40
2022/06/02 12:07:17;;;;;;;10.32;0.90;;;;;;;22.60;55.27;99929.34;7313349;19;129600;-39
2022/06/02 12:09:53;;;;;;;24.83;1.95;;;;;;;22.59;54.94;99932.91;7311130;19;130490;-40
2022/06/02 12:12:32;;;;;;;23.27;1.85;;;;;;;22.55;54.33;99917.59;7309894;19;158727;-41
2022/06/02 12:15:03;;;;;;;27.55;2.10;;;;;;;22.57;54.50;99928.78;7310410;19;129681;-40
2022/06/02 12:17:51;;;;;;;32.65;2.60;;;;;;;22.58;54.34;99925.19;7308439;19;129108;-41
2022/06/02 12:20:58;;;;;;;41.38;3.10;;;;;;;22.53;55.98;99932.63;7307659;19;130041;-41
2022/06/02 12:23:55;;;;;;;29.52;2.25;;;;;;;22.57;55.34;99944.50;7311731;19;130444;-39
2022/06/02 12:26:58;;;;;;;70.38;5.15;;;;;;;22.60;55.78;99931.13;7308422;19;129293;-40
2022/06/02 12:29:44;;;;;;;16.58;1.52;;;;;;;22.51;55.43;99918.84;7312411;19;130100;-41
2022/06/02 12:32:28;;;;;;;40.58;3.22;;;;;;;22.49;54.93;99916.34;7312834;19;130252;-40
2022/06/02 12:35:16;;;;;;;24.75;1.83;;;;;;;22.17;50.98;99941.09;7312229;19;131232;-40
2022/06/02 12:38:03;;;;;;;19.50;1.40;;;;;;;22.20;52.67;99940.84;7307488;19;129208;-42
2022/06/02 12:40:46;;;;;;;31.67;2.40;;;;;;;22.41;54.11;99933.72;7310665;19;129015;-39
2022/06/02 12:43:43;;;;;;;32.10;2.53;;;;;;;22.51;54.26;99929.31;7312656;19;129490;-40
2022/06/02 12:46:23;;;;;;;23.48;1.90;;;;;;;22.48;54.60;99914.69;7310699;19;130197;-39
2022/06/02 12:49:24;;;;;;;49.03;3.75;;;;;;;22.54;55.33;99923.81;7311240;19;129098;-39
2022/06/02 12:51:58;;;;;;;17.17;1.52;;;;;;;22.57;53.91;99929.63;7309728;19;129679;-41
2022/06/02 12:54:47;;;;;;;31.75;2.45;;;;;;;22.59;53.83;99929.47;7313593;19;130470;-42
2022/06/02 12:57:21;;;;;;;27.77;2.28;;;;;;;22.61;54.93;99924.94;7308734;19;130389;-40
2022/06/02 13:00:07;;;;;;;27.38;2.17;;;;;;;22.61;55.15;99919.69;7305838;19;129635;-43